Disclaimer

Please do not use the information listed here in-flight or in-navigation, as they are not provided to us by the airports but are provided by volunteers, so they might be outdated.

Search


Regions


Airport information page

Radio informations:
Tower (TWR) - 118.3 MHz
Automatic Terminal Information Service (ATIS) - 128.2 MHz
Approach (APP) - 128.5 MHz

Airport informations:
Latitude: 54° 39' 27.00" N
Longitude: 006° 12' 57.00" W
Elevation: 268 feet - 82 meters
Operating hours: 24 hour operations
Operating agency: Civil government, landing fees and diplomatic clearance may be required
Timezone: UTC 0(+1DT) - Last Sunday in March to last Sunday in October
Fuel: N/A

Runway information:
07/25 - 9121 x 148 feet< - >2780 x 45 meters
17/35 - 6401 x 148 feet< - >1951 x 45 meters

Recent METARs:
EGAA 151750Z 14021G31KT 7000 RADZ BKN007 BKN011 OVC018 09/08 Q0983
EGAA 151820Z 13020G31KT 7000 -RA FEW008 BKN013 09/07 Q0983
EGAA 151850Z 12017KT 6000 -RA BKN007 BKN011 08/07 Q0983 REDZ

Airport on the map: